sensor_id;sensor_type;location;lat;lon;timestamp;P1;durP1;ratioP1;P2;durP2;ratioP2
10823;SDS011;39116;59.332;18.034;2024-01-07T00:00:11;11.03;;;7.60;;
10823;SDS011;39116;59.332;18.034;2024-01-07T00:02:33;10.33;;;7.37;;
10823;SDS011;39116;59.332;18.034;2024-01-07T00:04:56;9.40;;;7.43;;
10823;SDS011;39116;59.332;18.034;2024-01-07T00:07:18;9.27;;;7.43;;
10823;SDS011;39116;59.332;18.034;2024-01-07T00:09:41;10.70;;;6.93;;
10823;SDS011;39116;59.332;18.034;2024-01-07T00:12:02;9.83;;;7.13;;
10823;SDS011;39116;59.332;18.034;2024-01-07T00:14:25;11.43;;;7.73;;
10823;SDS011;39116;59.332;18.034;2024-01-07T00:16:47;11.33;;;7.40;;
10823;SDS011;39116;59.332;18.034;2024-01-07T00:19:09;11.37;;;7.70;;
10823;SDS011;39116;59.332;18.034;2024-01-07T00:21:30;11.27;;;7.57;;
10823;SDS011;39116;59.332;18.034;2024-01-07T00:23:52;11.53;;;7.70;;
10823;SDS011;39116;59.332;18.034;2024-01-07T00:26:14;11.87;;;7.80;;
10823;SDS011;39116;59.332;18.034;2024-01-07T00:28:35;10.10;;;7.67;;
10823;SDS011;39116;59.332;18.034;2024-01-07T00:30:58;10.63;;;7.87;;
10823;SDS011;39116;59.332;18.034;2024-01-07T00:33:20;12.77;;;7.37;;
10823;SDS011;39116;59.332;18.034;2024-01-07T00:35:42;12.33;;;7.70;;
10823;SDS011;39116;59.332;18.034;2024-01-07T00:38:04;10.70;;;7.37;;
10823;SDS011;39116;59.332;18.034;2024-01-07T00:40:25;10.43;;;7.13;;
10823;SDS011;39116;59.332;18.034;2024-01-07T00:42:47;10.97;;;7.83;;
10823;SDS011;39116;59.332;18.034;2024-01-07T00:45:09;10.90;;;7.47;;
10823;SDS011;39116;59.332;18.034;2024-01-07T00:47:32;11.20;;;7.73;;
10823;SDS011;39116;59.332;18.034;2024-01-07T00:49:53;10.30;;;7.00;;
10823;SDS011;39116;59.332;18.034;2024-01-07T00:52:15;11.80;;;6.97;;
10823;SDS011;39116;59.332;18.034;2024-01-07T00:54:37;10.47;;;6.90;;
10823;SDS011;39116;59.332;18.034;2024-01-07T00:56:58;10.10;;;7.00;;
10823;SDS011;39116;59.332;18.034;2024-01-07T00:59:20;11.00;;;7.23;;
10823;SDS011;39116;59.332;18.034;2024-01-07T01:01:42;11.80;;;7.40;;
10823;SDS011;39116;59.332;18.034;2024-01-07T01:04:05;10.27;;;6.73;;
10823;SDS011;39116;59.332;18.034;2024-01-07T01:06:27;12.03;;;7.23;;
10823;SDS011;39116;59.332;18.034;2024-01-07T01:08:48;10.00;;;6.77;;
10823;SDS011;39116;59.332;18.034;2024-01-07T01:11:10;9.00;;;6.37;;
10823;SDS011;39116;59.332;18.034;2024-01-07T01:13:32;12.87;;;7.80;;
10823;SDS011;39116;59.332;18.034;2024-01-07T01:15:53;10.63;;;7.03;;
10823;SDS011;39116;59.332;18.034;2024-01-07T01:18:15;11.40;;;7.03;;
10823;SDS011;39116;59.332;18.034;2024-01-07T01:20:38;11.97;;;7.47;;
10823;SDS011;39116;59.332;18.034;2024-01-07T01:23:00;11.10;;;7.43;;
10823;SDS011;39116;59.332;18.034;2024-01-07T01:25:22;9.80;;;6.90;;
10823;SDS011;39116;59.332;18.034;2024-01-07T01:27:44;9.57;;;6.80;;
10823;SDS011;39116;59.332;18.034;2024-01-07T01:30:06;10.20;;;7.27;;
10823;SDS011;39116;59.332;18.034;2024-01-07T01:32:28;10.70;;;7.20;;
10823;SDS011;39116;59.332;18.034;2024-01-07T01:34:50;10.87;;;7.27;;
10823;SDS011;39116;59.332;18.034;2024-01-07T01:37:13;9.97;;;7.10;;
10823;SDS011;39116;59.332;18.034;2024-01-07T01:39:35;8.93;;;7.00;;
10823;SDS011;39116;59.332;18.034;2024-01-07T01:41:57;10.07;;;7.17;;
10823;SDS011;39116;59.332;18.034;2024-01-07T01:44:18;11.60;;;7.20;;
10823;SDS011;39116;59.332;18.034;2024-01-07T01:46:40;12.03;;;7.37;;
10823;SDS011;39116;59.332;18.034;2024-01-07T01:49:02;9.83;;;7.37;;
10823;SDS011;39116;59.332;18.034;2024-01-07T01:51:24;10.80;;;7.07;;
10823;SDS011;39116;59.332;18.034;2024-01-07T01:53:47;11.53;;;7.40;;
10823;SDS011;39116;59.332;18.034;2024-01-07T01:56:09;9.90;;;6.70;;
10823;SDS011;39116;59.332;18.034;2024-01-07T01:58:31;11.30;;;6.93;;
10823;SDS011;39116;59.332;18.034;2024-01-07T02:00:53;11.57;;;7.17;;
10823;SDS011;39116;59.332;18.034;2024-01-07T02:03:15;9.47;;;7.33;;
10823;SDS011;39116;59.332;18.034;2024-01-07T02:05:37;10.77;;;7.10;;
10823;SDS011;39116;59.332;18.034;2024-01-07T02:07:58;9.30;;;6.97;;
10823;SDS011;39116;59.332;18.034;2024-01-07T02:10:20;11.33;;;7.87;;
10823;SDS011;39116;59.332;18.034;2024-01-07T02:12:42;10.00;;;6.90;;
10823;SDS011;39116;59.332;18.034;2024-01-07T02:15:04;10.57;;;6.80;;
10823;SDS011;39116;59.332;18.034;2024-01-07T02:17:26;10.07;;;7.70;;
10823;SDS011;39116;59.332;18.034;2024-01-07T02:19:48;13.13;;;9.73;;
10823;SDS011;39116;59.332;18.034;2024-01-07T02:22:10;9.97;;;6.93;;
10823;SDS011;39116;59.332;18.034;2024-01-07T02:24:33;12.97;;;8.20;;
10823;SDS011;39116;59.332;18.034;2024-01-07T02:26:55;10.27;;;7.13;;
10823;SDS011;39116;59.332;18.034;2024-01-07T02:29:17;9.90;;;7.03;;
10823;SDS011;39116;59.332;18.034;2024-01-07T02:31:39;10.27;;;7.20;;
10823;SDS011;39116;59.332;18.034;2024-01-07T02:34:00;11.63;;;7.67;;
10823;SDS011;39116;59.332;18.034;2024-01-07T02:36:22;10.83;;;7.53;;
10823;SDS011;39116;59.332;18.034;2024-01-07T02:38:44;11.20;;;7.67;;
10823;SDS011;39116;59.332;18.034;2024-01-07T02:41:07;9.53;;;7.37;;
10823;SDS011;39116;59.332;18.034;2024-01-07T02:43:29;10.57;;;7.60;;
10823;SDS011;39116;59.332;18.034;2024-01-07T02:45:50;9.10;;;6.90;;
10823;SDS011;39116;59.332;18.034;2024-01-07T02:48:12;10.93;;;7.00;;
10823;SDS011;39116;59.332;18.034;2024-01-07T02:50:34;10.47;;;7.37;;
10823;SDS011;39116;59.332;18.034;2024-01-07T02:52:56;11.27;;;7.60;;
10823;SDS011;39116;59.332;18.034;2024-01-07T02:55:18;11.37;;;7.43;;
10823;SDS011;39116;59.332;18.034;2024-01-07T02:57:41;8.97;;;7.07;;
10823;SDS011;39116;59.332;18.034;2024-01-07T03:00:03;11.80;;;7.23;;
10823;SDS011;39116;59.332;18.034;2024-01-07T03:02:25;9.10;;;6.97;;
10823;SDS011;39116;59.332;18.034;2024-01-07T03:04:47;11.43;;;7.27;;
10823;SDS011;39116;59.332;18.034;2024-01-07T03:07:09;11.67;;;6.87;;
10823;SDS011;39116;59.332;18.034;2024-01-07T03:09:31;9.30;;;7.00;;
10823;SDS011;39116;59.332;18.034;2024-01-07T03:11:52;9.17;;;6.83;;
10823;SDS011;39116;59.332;18.034;2024-01-07T03:14:17;8.63;;;6.70;;
10823;SDS011;39116;59.332;18.034;2024-01-07T03:16:40;9.77;;;7.30;;
10823;SDS011;39116;59.332;18.034;2024-01-07T03:19:02;11.53;;;7.40;;
10823;SDS011;39116;59.332;18.034;2024-01-07T03:21:24;10.17;;;7.17;;
10823;SDS011;39116;59.332;18.034;2024-01-07T03:23:46;12.33;;;7.07;;
10823;SDS011;39116;59.332;18.034;2024-01-07T03:26:07;11.30;;;7.10;;
10823;SDS011;39116;59.332;18.034;2024-01-07T03:28:28;9.83;;;7.07;;
10823;SDS011;39116;59.332;18.034;2024-01-07T03:30:51;10.07;;;7.00;;
10823;SDS011;39116;59.332;18.034;2024-01-07T03:33:14;9.87;;;7.17;;
10823;SDS011;39116;59.332;18.034;2024-01-07T03:35:35;9.37;;;6.77;;
10823;SDS011;39116;59.332;18.034;2024-01-07T03:37:57;9.70;;;6.53;;
10823;SDS011;39116;59.332;18.034;2024-01-07T03:40:19;11.43;;;6.97;;
10823;SDS011;39116;59.332;18.034;2024-01-07T03:42:41;10.27;;;7.00;;
10823;SDS011;39116;59.332;18.034;2024-01-07T03:45:03;8.20;;;6.47;;
10823;SDS011;39116;59.332;18.034;2024-01-07T03:47:26;9.57;;;7.23;;
10823;SDS011;39116;59.332;18.034;2024-01-07T03:49:48;9.83;;;6.33;;
10823;SDS011;39116;59.332;18.034;2024-01-07T03:52:10;9.27;;;6.27;;
10823;SDS011;39116;59.332;18.034;2024-01-07T03:54:31;8.53;;;6.57;;
10823;SDS011;39116;59.332;18.034;2024-01-07T03:56:53;10.17;;;7.00;;
10823;SDS011;39116;59.332;18.034;2024-01-07T03:59:15;9.53;;;6.03;;
10823;SDS011;39116;59.332;18.034;2024-01-07T04:01:37;10.27;;;6.57;;
10823;SDS011;39116;59.332;18.034;2024-01-07T04:04:00;11.63;;;6.53;;
10823;SDS011;39116;59.332;18.034;2024-01-07T04:06:22;8.17;;;6.43;;
10823;SDS011;39116;59.332;18.034;2024-01-07T04:08:43;8.17;;;6.00;;
10823;SDS011;39116;59.332;18.034;2024-01-07T04:11:05;9.50;;;6.43;;
10823;SDS011;39116;59.332;18.034;2024-01-07T04:13:27;10.57;;;6.50;;
10823;SDS011;39116;59.332;18.034;2024-01-07T04:15:49;9.10;;;6.20;;
10823;SDS011;39116;59.332;18.034;2024-01-07T04:18:11;9.13;;;6.57;;
10823;SDS011;39116;59.332;18.034;2024-01-07T04:20:34;8.57;;;6.20;;
10823;SDS011;39116;59.332;18.034;2024-01-07T04:22:56;9.03;;;6.67;;
10823;SDS011;39116;59.332;18.034;2024-01-07T04:25:18;9.20;;;6.30;;
10823;SDS011;39116;59.332;18.034;2024-01-07T04:27:40;9.40;;;6.40;;
10823;SDS011;39116;59.332;18.034;2024-01-07T04:30:02;10.20;;;5.90;;
10823;SDS011;39116;59.332;18.034;2024-01-07T04:32:23;8.67;;;6.43;;
10823;SDS011;39116;59.332;18.034;2024-01-07T04:34:45;9.57;;;6.33;;
10823;SDS011;39116;59.332;18.034;2024-01-07T04:37:09;8.77;;;6.30;;
10823;SDS011;39116;59.332;18.034;2024-01-07T04:39:30;9.50;;;6.33;;
10823;SDS011;39116;59.332;18.034;2024-01-07T04:41:52;9.50;;;6.93;;
10823;SDS011;39116;59.332;18.034;2024-01-07T04:44:14;8.33;;;5.83;;
10823;SDS011;39116;59.332;18.034;2024-01-07T04:46:37;9.67;;;6.37;;
10823;SDS011;39116;59.332;18.034;2024-01-07T04:49:00;9.40;;;6.60;;
10823;SDS011;39116;59.332;18.034;2024-01-07T04:51:21;11.77;;;6.67;;
10823;SDS011;39116;59.332;18.034;2024-01-07T04:53:44;10.33;;;6.90;;
10823;SDS011;39116;59.332;18.034;2024-01-07T04:56:06;9.00;;;6.40;;
10823;SDS011;39116;59.332;18.034;2024-01-07T04:58:28;10.23;;;7.37;;
10823;SDS011;39116;59.332;18.034;2024-01-07T05:00:49;11.07;;;7.07;;
10823;SDS011;39116;59.332;18.034;2024-01-07T05:03:11;11.73;;;7.13;;
10823;SDS011;39116;59.332;18.034;2024-01-07T05:05:33;9.97;;;6.80;;
10823;SDS011;39116;59.332;18.034;2024-01-07T05:07:56;11.77;;;7.77;;
10823;SDS011;39116;59.332;18.034;2024-01-07T05:10:20;10.70;;;7.30;;
10823;SDS011;39116;59.332;18.034;2024-01-07T05:12:42;10.53;;;6.60;;
10823;SDS011;39116;59.332;18.034;2024-01-07T05:15:04;12.57;;;7.00;;
10823;SDS011;39116;59.332;18.034;2024-01-07T05:17:26;9.10;;;6.60;;
10823;SDS011;39116;59.332;18.034;2024-01-07T05:19:50;10.00;;;6.77;;
10823;SDS011;39116;59.332;18.034;2024-01-07T05:22:12;9.93;;;6.70;;
10823;SDS011;39116;59.332;18.034;2024-01-07T05:24:36;9.30;;;6.80;;
10823;SDS011;39116;59.332;18.034;2024-01-07T05:26:59;10.47;;;7.13;;
10823;SDS011;39116;59.332;18.034;2024-01-07T05:29:21;9.87;;;6.83;;
10823;SDS011;39116;59.332;18.034;2024-01-07T05:31:43;10.07;;;6.50;;
10823;SDS011;39116;59.332;18.034;2024-01-07T05:34:04;10.13;;;6.70;;
10823;SDS011;39116;59.332;18.034;2024-01-07T05:36:26;10.00;;;6.73;;
10823;SDS011;39116;59.332;18.034;2024-01-07T05:38:47;10.50;;;6.97;;
10823;SDS011;39116;59.332;18.034;2024-01-07T05:41:09;9.93;;;6.97;;
10823;SDS011;39116;59.332;18.034;2024-01-07T05:43:32;9.50;;;6.50;;
10823;SDS011;39116;59.332;18.034;2024-01-07T05:45:54;11.57;;;7.67;;
10823;SDS011;39116;59.332;18.034;2024-01-07T05:48:16;8.97;;;6.47;;
10823;SDS011;39116;59.332;18.034;2024-01-07T05:50:37;9.00;;;6.57;;
10823;SDS011;39116;59.332;18.034;2024-01-07T05:52:59;9.90;;;6.70;;
10823;SDS011;39116;59.332;18.034;2024-01-07T05:55:21;11.33;;;7.83;;
10823;SDS011;39116;59.332;18.034;2024-01-07T05:57:43;9.77;;;6.60;;
10823;SDS011;39116;59.332;18.034;2024-01-07T06:00:07;10.63;;;7.00;;
10823;SDS011;39116;59.332;18.034;2024-01-07T06:02:31;10.90;;;6.90;;
10823;SDS011;39116;59.332;18.034;2024-01-07T06:04:52;9.83;;;6.30;;
10823;SDS011;39116;59.332;18.034;2024-01-07T06:07:14;8.80;;;6.60;;
10823;SDS011;39116;59.332;18.034;2024-01-07T06:09:36;8.77;;;6.00;;
10823;SDS011;39116;59.332;18.034;2024-01-07T06:11:58;9.70;;;6.63;;
10823;SDS011;39116;59.332;18.034;2024-01-07T06:14:19;10.70;;;7.13;;
10823;SDS011;39116;59.332;18.034;2024-01-07T06:16:42;9.70;;;6.70;;
10823;SDS011;39116;59.332;18.034;2024-01-07T06:19:04;9.40;;;6.40;;
10823;SDS011;39116;59.332;18.034;2024-01-07T06:21:26;9.87;;;7.23;;
10823;SDS011;39116;59.332;18.034;2024-01-07T06:23:48;10.03;;;6.27;;
10823;SDS011;39116;59.332;18.034;2024-01-07T06:26:10;10.03;;;6.60;;
10823;SDS011;39116;59.332;18.034;2024-01-07T06:28:31;9.13;;;6.23;;
10823;SDS011;39116;59.332;18.034;2024-01-07T06:30:53;9.63;;;6.40;;
10823;SDS011;39116;59.332;18.034;2024-01-07T06:33:17;9.50;;;6.20;;
10823;SDS011;39116;59.332;18.034;2024-01-07T06:35:40;7.23;;;5.80;;
10823;SDS011;39116;59.332;18.034;2024-01-07T06:38:02;9.13;;;6.27;;
10823;SDS011;39116;59.332;18.034;2024-01-07T06:40:24;8.60;;;6.20;;
10823;SDS011;39116;59.332;18.034;2024-01-07T06:42:47;7.90;;;5.53;;
10823;SDS011;39116;59.332;18.034;2024-01-07T06:45:09;8.97;;;6.07;;
10823;SDS011;39116;59.332;18.034;2024-01-07T06:47:31;7.70;;;6.00;;
10823;SDS011;39116;59.332;18.034;2024-01-07T06:49:57;7.37;;;5.60;;
10823;SDS011;39116;59.332;18.034;2024-01-07T06:52:19;8.87;;;6.40;;
10823;SDS011;39116;59.332;18.034;2024-01-07T06:54:41;8.97;;;5.70;;
10823;SDS011;39116;59.332;18.034;2024-01-07T06:57:03;7.70;;;5.90;;
10823;SDS011;39116;59.332;18.034;2024-01-07T06:59:25;7.40;;;5.50;;
10823;SDS011;39116;59.332;18.034;2024-01-07T07:01:46;8.13;;;5.77;;
10823;SDS011;39116;59.332;18.034;2024-01-07T07:04:08;9.47;;;6.10;;
10823;SDS011;39116;59.332;18.034;2024-01-07T07:06:31;8.70;;;5.63;;
10823;SDS011;39116;59.332;18.034;2024-01-07T07:08:53;11.03;;;6.30;;
10823;SDS011;39116;59.332;18.034;2024-01-07T07:11:15;6.70;;;5.27;;
10823;SDS011;39116;59.332;18.034;2024-01-07T07:13:37;9.63;;;5.53;;
10823;SDS011;39116;59.332;18.034;2024-01-07T07:15:59;8.83;;;5.70;;
10823;SDS011;39116;59.332;18.034;2024-01-07T07:18:21;7.60;;;5.53;;
10823;SDS011;39116;59.332;18.034;2024-01-07T07:20:43;6.60;;;5.10;;
10823;SDS011;39116;59.332;18.034;2024-01-07T07:23:06;8.90;;;5.33;;
10823;SDS011;39116;59.332;18.034;2024-01-07T07:25:28;8.30;;;5.50;;
10823;SDS011;39116;59.332;18.034;2024-01-07T07:27:49;7.73;;;5.33;;
10823;SDS011;39116;59.332;18.034;2024-01-07T07:30:12;9.10;;;5.50;;
10823;SDS011;39116;59.332;18.034;2024-01-07T07:32:33;7.07;;;5.30;;
10823;SDS011;39116;59.332;18.034;2024-01-07T07:34:56;6.67;;;4.93;;
10823;SDS011;39116;59.332;18.034;2024-01-07T07:37:17;8.00;;;5.13;;
10823;SDS011;39116;59.332;18.034;2024-01-07T07:39:41;7.47;;;5.20;;
10823;SDS011;39116;59.332;18.034;2024-01-07T07:42:03;10.07;;;5.53;;
10823;SDS011;39116;59.332;18.034;2024-01-07T07:44:24;9.70;;;5.57;;
10823;SDS011;39116;59.332;18.034;2024-01-07T07:46:46;8.13;;;5.50;;
10823;SDS011;39116;59.332;18.034;2024-01-07T07:49:08;7.37;;;5.37;;
10823;SDS011;39116;59.332;18.034;2024-01-07T07:51:32;7.47;;;5.07;;
10823;SDS011;39116;59.332;18.034;2024-01-07T07:53:54;7.90;;;5.33;;
10823;SDS011;39116;59.332;18.034;2024-01-07T07:56:17;9.60;;;5.80;;
10823;SDS011;39116;59.332;18.034;2024-01-07T07:58:39;6.97;;;5.00;;
10823;SDS011;39116;59.332;18.034;2024-01-07T08:01:01;7.93;;;5.37;;
10823;SDS011;39116;59.332;18.034;2024-01-07T08:03:23;8.23;;;5.53;;
10823;SDS011;39116;59.332;18.034;2024-01-07T08:05:45;8.20;;;5.73;;
10823;SDS011;39116;59.332;18.034;2024-01-07T08:08:07;7.93;;;5.73;;
10823;SDS011;39116;59.332;18.034;2024-01-07T08:10:29;7.50;;;5.13;;
10823;SDS011;39116;59.332;18.034;2024-01-07T08:12:53;8.03;;;5.50;;
10823;SDS011;39116;59.332;18.034;2024-01-07T08:15:15;7.23;;;5.07;;
10823;SDS011;39116;59.332;18.034;2024-01-07T08:17:37;7.30;;;5.37;;
10823;SDS011;39116;59.332;18.034;2024-01-07T08:19:59;8.87;;;5.87;;
10823;SDS011;39116;59.332;18.034;2024-01-07T08:22:21;10.53;;;6.37;;
10823;SDS011;39116;59.332;18.034;2024-01-07T08:24:43;10.17;;;7.30;;
10823;SDS011;39116;59.332;18.034;2024-01-07T08:27:04;10.87;;;6.87;;
10823;SDS011;39116;59.332;18.034;2024-01-07T08:29:27;9.53;;;6.30;;
10823;SDS011;39116;59.332;18.034;2024-01-07T08:31:49;9.70;;;6.87;;
10823;SDS011;39116;59.332;18.034;2024-01-07T08:34:11;10.90;;;6.40;;
10823;SDS011;39116;59.332;18.034;2024-01-07T08:36:33;8.90;;;6.00;;
10823;SDS011;39116;59.332;18.034;2024-01-07T08:38:55;9.70;;;6.60;;
10823;SDS011;39116;59.332;18.034;2024-01-07T08:41:17;8.77;;;5.77;;
10823;SDS011;39116;59.332;18.034;2024-01-07T08:43:39;9.37;;;6.13;;
10823;SDS011;39116;59.332;18.034;2024-01-07T08:46:02;9.23;;;5.70;;
10823;SDS011;39116;59.332;18.034;2024-01-07T08:48:24;8.33;;;6.10;;
10823;SDS011;39116;59.332;18.034;2024-01-07T08:50:46;9.13;;;6.57;;
10823;SDS011;39116;59.332;18.034;2024-01-07T08:53:09;9.03;;;5.93;;
10823;SDS011;39116;59.332;18.034;2024-01-07T08:55:30;10.97;;;6.40;;
10823;SDS011;39116;59.332;18.034;2024-01-07T08:57:52;9.33;;;5.93;;
10823;SDS011;39116;59.332;18.034;2024-01-07T09:00:14;9.53;;;5.97;;
10823;SDS011;39116;59.332;18.034;2024-01-07T09:02:38;8.60;;;5.57;;
10823;SDS011;39116;59.332;18.034;2024-01-07T09:05:00;12.90;;;6.43;;
10823;SDS011;39116;59.332;18.034;2024-01-07T09:07:22;9.80;;;6.50;;
10823;SDS011;39116;59.332;18.034;2024-01-07T09:09:44;8.63;;;6.27;;
10823;SDS011;39116;59.332;18.034;2024-01-07T09:12:05;8.80;;;5.80;;
10823;SDS011;39116;59.332;18.034;2024-01-07T09:14:27;10.33;;;6.97;;
10823;SDS011;39116;59.332;18.034;2024-01-07T09:16:48;9.93;;;6.40;;
10823;SDS011;39116;59.332;18.034;2024-01-07T09:19:11;10.97;;;6.30;;
10823;SDS011;39116;59.332;18.034;2024-01-07T09:21:33;11.80;;;6.87;;
10823;SDS011;39116;59.332;18.034;2024-01-07T09:23:55;11.03;;;7.13;;
10823;SDS011;39116;59.332;18.034;2024-01-07T09:26:17;10.73;;;6.43;;
10823;SDS011;39116;59.332;18.034;2024-01-07T09:28:39;10.10;;;6.80;;
10823;SDS011;39116;59.332;18.034;2024-01-07T09:31:03;8.97;;;5.87;;
10823;SDS011;39116;59.332;18.034;2024-01-07T09:33:24;11.90;;;6.70;;
10823;SDS011;39116;59.332;18.034;2024-01-07T09:35:47;9.83;;;7.07;;
10823;SDS011;39116;59.332;18.034;2024-01-07T09:38:09;12.10;;;7.20;;
10823;SDS011;39116;59.332;18.034;2024-01-07T09:40:31;9.90;;;7.13;;
10823;SDS011;39116;59.332;18.034;2024-01-07T09:42:52;10.57;;;7.53;;
10823;SDS011;39116;59.332;18.034;2024-01-07T09:45:14;10.20;;;7.67;;
10823;SDS011;39116;59.332;18.034;2024-01-07T09:47:36;12.17;;;8.17;;
10823;SDS011;39116;59.332;18.034;2024-01-07T09:49:57;13.70;;;8.83;;
10823;SDS011;39116;59.332;18.034;2024-01-07T09:52:21;12.47;;;8.87;;
10823;SDS011;39116;59.332;18.034;2024-01-07T09:54:42;13.93;;;8.17;;
10823;SDS011;39116;59.332;18.034;2024-01-07T09:57:07;12.97;;;8.00;;
10823;SDS011;39116;59.332;18.034;2024-01-07T09:59:30;11.27;;;7.93;;
10823;SDS011;39116;59.332;18.034;2024-01-07T10:01:52;12.27;;;8.37;;
10823;SDS011;39116;59.332;18.034;2024-01-07T10:04:14;13.20;;;8.43;;
10823;SDS011;39116;59.332;18.034;2024-01-07T10:06:36;15.30;;;8.30;;
10823;SDS011;39116;59.332;18.034;2024-01-07T10:08:59;12.30;;;8.20;;
10823;SDS011;39116;59.332;18.034;2024-01-07T10:11:21;13.37;;;8.97;;
10823;SDS011;39116;59.332;18.034;2024-01-07T10:13:44;13.63;;;8.23;;
10823;SDS011;39116;59.332;18.034;2024-01-07T10:16:07;13.50;;;8.50;;
10823;SDS011;39116;59.332;18.034;2024-01-07T10:18:30;11.80;;;7.90;;
10823;SDS011;39116;59.332;18.034;2024-01-07T10:20:54;15.70;;;8.10;;
10823;SDS011;39116;59.332;18.034;2024-01-07T10:23:18;13.50;;;8.50;;
10823;SDS011;39116;59.332;18.034;2024-01-07T10:25:42;14.07;;;9.20;;
10823;SDS011;39116;59.332;18.034;2024-01-07T10:28:03;11.70;;;8.10;;
10823;SDS011;39116;59.332;18.034;2024-01-07T10:30:25;15.10;;;9.00;;
10823;SDS011;39116;59.332;18.034;2024-01-07T10:32:47;14.10;;;9.07;;
10823;SDS011;39116;59.332;18.034;2024-01-07T10:35:10;14.93;;;9.07;;
10823;SDS011;39116;59.332;18.034;2024-01-07T10:37:34;15.80;;;10.80;;
10823;SDS011;39116;59.332;18.034;2024-01-07T10:39:57;14.97;;;9.17;;
10823;SDS011;39116;59.332;18.034;2024-01-07T10:42:22;13.57;;;9.67;;
10823;SDS011;39116;59.332;18.034;2024-01-07T10:44:45;14.90;;;9.70;;
10823;SDS011;39116;59.332;18.034;2024-01-07T10:47:06;13.40;;;10.13;;
10823;SDS011;39116;59.332;18.034;2024-01-07T10:49:29;18.50;;;11.17;;
10823;SDS011;39116;59.332;18.034;2024-01-07T10:51:56;14.87;;;10.67;;
10823;SDS011;39116;59.332;18.034;2024-01-07T10:54:18;19.67;;;10.77;;
10823;SDS011;39116;59.332;18.034;2024-01-07T10:56:42;17.53;;;9.87;;
10823;SDS011;39116;59.332;18.034;2024-01-07T10:59:08;16.23;;;9.93;;
10823;SDS011;39116;59.332;18.034;2024-01-07T11:01:29;17.10;;;11.27;;
10823;SDS011;39116;59.332;18.034;2024-01-07T11:03:53;16.20;;;10.80;;
10823;SDS011;39116;59.332;18.034;2024-01-07T11:06:18;14.80;;;9.43;;
10823;SDS011;39116;59.332;18.034;2024-01-07T11:08:43;17.07;;;10.57;;
10823;SDS011;39116;59.332;18.034;2024-01-07T11:11:07;13.00;;;8.90;;
10823;SDS011;39116;59.332;18.034;2024-01-07T11:13:31;14.13;;;9.40;;
10823;SDS011;39116;59.332;18.034;2024-01-07T11:15:54;14.83;;;9.30;;
10823;SDS011;39116;59.332;18.034;2024-01-07T11:18:17;13.63;;;9.10;;
10823;SDS011;39116;59.332;18.034;2024-01-07T11:20:38;14.10;;;9.23;;
10823;SDS011;39116;59.332;18.034;2024-01-07T11:25:40;12.73;;;9.47;;
10823;SDS011;39116;59.332;18.034;2024-01-07T11:28:01;14.17;;;10.13;;
10823;SDS011;39116;59.332;18.034;2024-01-07T11:30:24;14.10;;;10.07;;
10823;SDS011;39116;59.332;18.034;2024-01-07T11:32:48;14.57;;;10.00;;
10823;SDS011;39116;59.332;18.034;2024-01-07T11:35:09;15.27;;;9.87;;
10823;SDS011;39116;59.332;18.034;2024-01-07T11:37:31;15.73;;;10.37;;
10823;SDS011;39116;59.332;18.034;2024-01-07T11:39:54;12.43;;;9.30;;
10823;SDS011;39116;59.332;18.034;2024-01-07T11:42:17;14.90;;;9.73;;
10823;SDS011;39116;59.332;18.034;2024-01-07T11:44:44;15.70;;;10.37;;
10823;SDS011;39116;59.332;18.034;2024-01-07T11:47:07;13.90;;;10.00;;
10823;SDS011;39116;59.332;18.034;2024-01-07T11:49:30;20.27;;;14.73;;
10823;SDS011;39116;59.332;18.034;2024-01-07T11:51:52;14.37;;;10.10;;
10823;SDS011;39116;59.332;18.034;2024-01-07T11:54:14;13.93;;;10.37;;
10823;SDS011;39116;59.332;18.034;2024-01-07T11:56:35;11.50;;;9.03;;
10823;SDS011;39116;59.332;18.034;2024-01-07T11:58:58;16.60;;;9.60;;
10823;SDS011;39116;59.332;18.034;2024-01-07T12:01:19;13.10;;;9.93;;
10823;SDS011;39116;59.332;18.034;2024-01-07T12:03:43;15.37;;;10.20;;
10823;SDS011;39116;59.332;18.034;2024-01-07T12:06:06;12.30;;;8.60;;
10823;SDS011;39116;59.332;18.034;2024-01-07T12:08:28;14.43;;;10.90;;
10823;SDS011;39116;59.332;18.034;2024-01-07T12:10:50;12.10;;;9.37;;
10823;SDS011;39116;59.332;18.034;2024-01-07T12:13:12;15.43;;;9.93;;
10823;SDS011;39116;59.332;18.034;2024-01-07T12:15:34;14.37;;;10.43;;
10823;SDS011;39116;59.332;18.034;2024-01-07T12:17:56;14.27;;;9.73;;
10823;SDS011;39116;59.332;18.034;2024-01-07T12:20:18;15.43;;;9.37;;
10823;SDS011;39116;59.332;18.034;2024-01-07T12:22:41;15.40;;;9.23;;
10823;SDS011;39116;59.332;18.034;2024-01-07T12:25:04;13.20;;;9.00;;
10823;SDS011;39116;59.332;18.034;2024-01-07T12:27:26;14.90;;;9.77;;
10823;SDS011;39116;59.332;18.034;2024-01-07T12:29:54;13.93;;;9.07;;
10823;SDS011;39116;59.332;18.034;2024-01-07T12:32:15;14.53;;;8.60;;
10823;SDS011;39116;59.332;18.034;2024-01-07T12:34:37;12.33;;;9.13;;
10823;SDS011;39116;59.332;18.034;2024-01-07T12:36:59;12.33;;;8.43;;
10823;SDS011;39116;59.332;18.034;2024-01-07T12:39:23;12.63;;;8.73;;
10823;SDS011;39116;59.332;18.034;2024-01-07T12:41:45;15.53;;;10.07;;
10823;SDS011;39116;59.332;18.034;2024-01-07T12:44:07;12.73;;;9.23;;
10823;SDS011;39116;59.332;18.034;2024-01-07T12:46:29;14.60;;;9.53;;
10823;SDS011;39116;59.332;18.034;2024-01-07T12:48:51;13.83;;;10.00;;
10823;SDS011;39116;59.332;18.034;2024-01-07T12:51:13;13.87;;;9.53;;
10823;SDS011;39116;59.332;18.034;2024-01-07T12:53:35;13.67;;;9.23;;
10823;SDS011;39116;59.332;18.034;2024-01-07T12:55:58;13.20;;;9.40;;
10823;SDS011;39116;59.332;18.034;2024-01-07T12:58:20;14.30;;;9.30;;
10823;SDS011;39116;59.332;18.034;2024-01-07T13:00:42;13.17;;;8.93;;
10823;SDS011;39116;59.332;18.034;2024-01-07T13:03:04;14.43;;;9.10;;
10823;SDS011;39116;59.332;18.034;2024-01-07T13:05:27;14.17;;;9.23;;
10823;SDS011;39116;59.332;18.034;2024-01-07T13:07:48;12.40;;;8.40;;
10823;SDS011;39116;59.332;18.034;2024-01-07T13:10:10;13.10;;;9.00;;
10823;SDS011;39116;59.332;18.034;2024-01-07T13:12:33;16.97;;;10.90;;
10823;SDS011;39116;59.332;18.034;2024-01-07T13:14:55;16.47;;;10.10;;
10823;SDS011;39116;59.332;18.034;2024-01-07T13:17:17;14.13;;;9.57;;
10823;SDS011;39116;59.332;18.034;2024-01-07T13:19:38;12.57;;;8.93;;
10823;SDS011;39116;59.332;18.034;2024-01-07T13:22:00;14.23;;;9.80;;
10823;SDS011;39116;59.332;18.034;2024-01-07T13:24:22;16.13;;;10.17;;
10823;SDS011;39116;59.332;18.034;2024-01-07T13:26:43;19.10;;;10.03;;
10823;SDS011;39116;59.332;18.034;2024-01-07T13:29:06;15.73;;;10.00;;
10823;SDS011;39116;59.332;18.034;2024-01-07T13:31:28;14.90;;;9.90;;
10823;SDS011;39116;59.332;18.034;2024-01-07T13:33:50;12.53;;;9.40;;
10823;SDS011;39116;59.332;18.034;2024-01-07T13:36:11;16.77;;;10.03;;
10823;SDS011;39116;59.332;18.034;2024-01-07T13:38:33;14.03;;;9.50;;
10823;SDS011;39116;59.332;18.034;2024-01-07T13:40:55;15.70;;;9.37;;
10823;SDS011;39116;59.332;18.034;2024-01-07T13:43:16;14.07;;;9.47;;
10823;SDS011;39116;59.332;18.034;2024-01-07T13:45:39;12.83;;;8.90;;
10823;SDS011;39116;59.332;18.034;2024-01-07T13:48:01;15.43;;;10.60;;
10823;SDS011;39116;59.332;18.034;2024-01-07T13:50:23;15.03;;;9.37;;
10823;SDS011;39116;59.332;18.034;2024-01-07T13:52:45;17.07;;;10.83;;
10823;SDS011;39116;59.332;18.034;2024-01-07T13:55:07;13.63;;;9.83;;
10823;SDS011;39116;59.332;18.034;2024-01-07T13:57:29;13.33;;;9.43;;